sensor_id;sensor_type;location;lat;lon;timestamp;P1;durP1;ratioP1;P2;durP2;ratioP2
20181;SDS011;10250;50.756;6.172;2022-10-22T00:01:34;9.37;;;1.87;;
20181;SDS011;10250;50.756;6.172;2022-10-22T00:03:35;7.80;;;1.50;;
20181;SDS011;10250;50.756;6.172;2022-10-22T00:05:36;7.03;;;1.50;;
20181;SDS011;10250;50.756;6.172;2022-10-22T00:07:36;7.30;;;1.60;;
20181;SDS011;10250;50.756;6.172;2022-10-22T00:09:37;4.97;;;1.60;;
20181;SDS011;10250;50.756;6.172;2022-10-22T00:11:37;3.30;;;1.33;;
20181;SDS011;10250;50.756;6.172;2022-10-22T00:13:38;5.37;;;1.30;;
20181;SDS011;10250;50.756;6.172;2022-10-22T00:15:40;5.80;;;1.57;;
20181;SDS011;10250;50.756;6.172;2022-10-22T00:17:40;5.17;;;1.23;;
20181;SDS011;10250;50.756;6.172;2022-10-22T00:19:41;4.40;;;1.40;;
20181;SDS011;10250;50.756;6.172;2022-10-22T00:21:42;5.23;;;1.50;;
20181;SDS011;10250;50.756;6.172;2022-10-22T00:23:42;5.37;;;1.33;;
20181;SDS011;10250;50.756;6.172;2022-10-22T00:25:43;4.80;;;1.50;;
20181;SDS011;10250;50.756;6.172;2022-10-22T00:27:43;4.63;;;1.40;;
20181;SDS011;10250;50.756;6.172;2022-10-22T00:29:44;4.40;;;1.40;;
20181;SDS011;10250;50.756;6.172;2022-10-22T00:31:44;6.83;;;1.57;;
20181;SDS011;10250;50.756;6.172;2022-10-22T00:33:48;4.60;;;1.27;;
20181;SDS011;10250;50.756;6.172;2022-10-22T00:35:49;3.47;;;1.30;;
20181;SDS011;10250;50.756;6.172;2022-10-22T00:37:49;5.27;;;1.27;;
20181;SDS011;10250;50.756;6.172;2022-10-22T00:39:50;6.53;;;1.30;;
20181;SDS011;10250;50.756;6.172;2022-10-22T00:41:51;2.93;;;1.00;;
20181;SDS011;10250;50.756;6.172;2022-10-22T00:44:01;6.77;;;1.50;;
20181;SDS011;10250;50.756;6.172;2022-10-22T00:46:03;6.93;;;1.70;;
20181;SDS011;10250;50.756;6.172;2022-10-22T00:48:04;7.37;;;1.60;;
20181;SDS011;10250;50.756;6.172;2022-10-22T00:50:10;3.93;;;1.30;;
20181;SDS011;10250;50.756;6.172;2022-10-22T00:52:14;4.33;;;1.23;;
20181;SDS011;10250;50.756;6.172;2022-10-22T00:54:15;5.00;;;1.37;;
20181;SDS011;10250;50.756;6.172;2022-10-22T00:56:16;6.10;;;1.70;;
20181;SDS011;10250;50.756;6.172;2022-10-22T00:58:17;4.13;;;1.30;;
20181;SDS011;10250;50.756;6.172;2022-10-22T01:00:20;8.77;;;1.80;;
20181;SDS011;10250;50.756;6.172;2022-10-22T01:02:21;5.97;;;1.47;;
20181;SDS011;10250;50.756;6.172;2022-10-22T01:04:21;6.73;;;1.50;;
20181;SDS011;10250;50.756;6.172;2022-10-22T01:06:32;4.57;;;1.40;;
20181;SDS011;10250;50.756;6.172;2022-10-22T01:08:48;6.03;;;1.60;;
20181;SDS011;10250;50.756;6.172;2022-10-22T01:15:17;3.93;;;1.33;;
20181;SDS011;10250;50.756;6.172;2022-10-22T01:17:29;4.70;;;1.40;;
20181;SDS011;10250;50.756;6.172;2022-10-22T01:19:38;3.00;;;1.10;;
20181;SDS011;10250;50.756;6.172;2022-10-22T01:21:52;5.93;;;1.50;;
20181;SDS011;10250;50.756;6.172;2022-10-22T01:30:52;6.13;;;1.90;;
20181;SDS011;10250;50.756;6.172;2022-10-22T01:32:59;8.07;;;1.57;;
20181;SDS011;10250;50.756;6.172;2022-10-22T01:35:03;5.60;;;1.40;;
20181;SDS011;10250;50.756;6.172;2022-10-22T01:37:07;4.37;;;1.20;;
20181;SDS011;10250;50.756;6.172;2022-10-22T01:39:11;6.67;;;1.53;;
20181;SDS011;10250;50.756;6.172;2022-10-22T01:41:14;3.23;;;1.17;;
20181;SDS011;10250;50.756;6.172;2022-10-22T01:43:15;6.27;;;1.57;;
20181;SDS011;10250;50.756;6.172;2022-10-22T01:45:16;5.90;;;1.57;;
20181;SDS011;10250;50.756;6.172;2022-10-22T01:47:20;6.07;;;1.60;;
20181;SDS011;10250;50.756;6.172;2022-10-22T01:49:26;5.73;;;1.50;;
20181;SDS011;10250;50.756;6.172;2022-10-22T01:51:41;6.87;;;1.67;;
20181;SDS011;10250;50.756;6.172;2022-10-22T02:00:24;8.23;;;1.43;;
20181;SDS011;10250;50.756;6.172;2022-10-22T02:04:48;7.77;;;1.30;;
20181;SDS011;10250;50.756;6.172;2022-10-22T02:06:58;5.93;;;1.53;;
20181;SDS011;10250;50.756;6.172;2022-10-22T02:09:02;5.27;;;1.60;;
20181;SDS011;10250;50.756;6.172;2022-10-22T02:11:03;4.33;;;1.33;;
20181;SDS011;10250;50.756;6.172;2022-10-22T02:13:08;4.27;;;1.40;;
20181;SDS011;10250;50.756;6.172;2022-10-22T02:15:13;8.50;;;1.67;;
20181;SDS011;10250;50.756;6.172;2022-10-22T02:17:17;4.37;;;1.50;;
20181;SDS011;10250;50.756;6.172;2022-10-22T02:19:24;3.27;;;1.33;;
20181;SDS011;10250;50.756;6.172;2022-10-22T02:21:26;7.90;;;1.80;;
20181;SDS011;10250;50.756;6.172;2022-10-22T02:23:27;5.87;;;1.43;;
20181;SDS011;10250;50.756;6.172;2022-10-22T02:25:29;4.40;;;1.50;;
20181;SDS011;10250;50.756;6.172;2022-10-22T02:27:40;7.80;;;1.77;;
20181;SDS011;10250;50.756;6.172;2022-10-22T02:29:59;8.27;;;2.23;;
20181;SDS011;10250;50.756;6.172;2022-10-22T02:32:07;4.57;;;1.27;;
20181;SDS011;10250;50.756;6.172;2022-10-22T02:34:10;4.60;;;1.37;;
20181;SDS011;10250;50.756;6.172;2022-10-22T02:36:15;9.90;;;2.10;;
20181;SDS011;10250;50.756;6.172;2022-10-22T02:38:17;7.00;;;1.80;;
20181;SDS011;10250;50.756;6.172;2022-10-22T02:40:18;6.30;;;1.60;;
20181;SDS011;10250;50.756;6.172;2022-10-22T02:42:19;6.10;;;1.50;;
20181;SDS011;10250;50.756;6.172;2022-10-22T02:44:21;5.77;;;1.63;;
20181;SDS011;10250;50.756;6.172;2022-10-22T02:46:22;6.17;;;1.70;;
20181;SDS011;10250;50.756;6.172;2022-10-22T02:48:24;6.50;;;1.80;;
20181;SDS011;10250;50.756;6.172;2022-10-22T02:50:25;9.10;;;2.27;;
20181;SDS011;10250;50.756;6.172;2022-10-22T02:52:25;4.83;;;1.37;;
20181;SDS011;10250;50.756;6.172;2022-10-22T02:54:26;7.47;;;1.87;;
20181;SDS011;10250;50.756;6.172;2022-10-22T02:56:27;4.03;;;1.37;;
20181;SDS011;10250;50.756;6.172;2022-10-22T02:58:27;8.13;;;1.97;;
20181;SDS011;10250;50.756;6.172;2022-10-22T03:00:28;5.73;;;1.77;;
20181;SDS011;10250;50.756;6.172;2022-10-22T03:02:28;7.50;;;2.30;;
20181;SDS011;10250;50.756;6.172;2022-10-22T03:04:29;6.73;;;1.60;;
20181;SDS011;10250;50.756;6.172;2022-10-22T03:06:30;7.13;;;1.87;;
20181;SDS011;10250;50.756;6.172;2022-10-22T03:08:30;5.17;;;1.60;;
20181;SDS011;10250;50.756;6.172;2022-10-22T03:10:31;6.63;;;1.70;;
20181;SDS011;10250;50.756;6.172;2022-10-22T03:12:31;9.37;;;1.60;;
20181;SDS011;10250;50.756;6.172;2022-10-22T03:14:32;8.57;;;1.97;;
20181;SDS011;10250;50.756;6.172;2022-10-22T03:16:33;6.33;;;1.90;;
20181;SDS011;10250;50.756;6.172;2022-10-22T03:18:34;9.57;;;1.80;;
20181;SDS011;10250;50.756;6.172;2022-10-22T03:20:34;7.37;;;1.80;;
20181;SDS011;10250;50.756;6.172;2022-10-22T03:22:35;5.07;;;1.60;;
20181;SDS011;10250;50.756;6.172;2022-10-22T03:24:43;6.97;;;1.73;;
20181;SDS011;10250;50.756;6.172;2022-10-22T03:26:45;7.03;;;1.67;;
20181;SDS011;10250;50.756;6.172;2022-10-22T03:28:50;4.53;;;1.57;;
20181;SDS011;10250;50.756;6.172;2022-10-22T03:30:51;8.53;;;1.97;;
20181;SDS011;10250;50.756;6.172;2022-10-22T03:32:51;8.53;;;2.00;;
20181;SDS011;10250;50.756;6.172;2022-10-22T03:34:52;6.63;;;1.70;;
20181;SDS011;10250;50.756;6.172;2022-10-22T03:36:53;7.13;;;1.70;;
20181;SDS011;10250;50.756;6.172;2022-10-22T03:38:54;6.37;;;1.90;;
20181;SDS011;10250;50.756;6.172;2022-10-22T03:40:54;7.27;;;1.83;;
20181;SDS011;10250;50.756;6.172;2022-10-22T03:42:55;6.03;;;1.70;;
20181;SDS011;10250;50.756;6.172;2022-10-22T03:44:57;4.07;;;1.30;;
20181;SDS011;10250;50.756;6.172;2022-10-22T03:46:57;4.43;;;1.50;;
20181;SDS011;10250;50.756;6.172;2022-10-22T03:48:58;3.87;;;1.33;;
20181;SDS011;10250;50.756;6.172;2022-10-22T03:50:59;5.80;;;1.43;;
20181;SDS011;10250;50.756;6.172;2022-10-22T03:52:59;5.83;;;1.43;;
20181;SDS011;10250;50.756;6.172;2022-10-22T03:55:00;5.87;;;1.53;;
20181;SDS011;10250;50.756;6.172;2022-10-22T03:57:00;4.83;;;1.70;;
20181;SDS011;10250;50.756;6.172;2022-10-22T03:59:02;8.30;;;1.70;;
20181;SDS011;10250;50.756;6.172;2022-10-22T04:01:04;6.00;;;1.53;;
20181;SDS011;10250;50.756;6.172;2022-10-22T04:03:05;7.23;;;1.60;;
20181;SDS011;10250;50.756;6.172;2022-10-22T04:05:06;7.53;;;1.70;;
20181;SDS011;10250;50.756;6.172;2022-10-22T04:07:07;5.90;;;1.40;;
20181;SDS011;10250;50.756;6.172;2022-10-22T04:09:08;6.13;;;1.77;;
20181;SDS011;10250;50.756;6.172;2022-10-22T04:11:09;7.90;;;1.50;;
20181;SDS011;10250;50.756;6.172;2022-10-22T04:13:10;6.43;;;1.70;;
20181;SDS011;10250;50.756;6.172;2022-10-22T04:15:11;6.40;;;1.60;;
20181;SDS011;10250;50.756;6.172;2022-10-22T04:17:12;5.40;;;1.30;;
20181;SDS011;10250;50.756;6.172;2022-10-22T04:19:12;4.30;;;1.50;;
20181;SDS011;10250;50.756;6.172;2022-10-22T04:21:14;7.03;;;1.70;;
20181;SDS011;10250;50.756;6.172;2022-10-22T04:23:16;7.27;;;1.43;;
20181;SDS011;10250;50.756;6.172;2022-10-22T04:25:16;5.77;;;1.40;;
20181;SDS011;10250;50.756;6.172;2022-10-22T04:27:17;5.30;;;1.40;;
20181;SDS011;10250;50.756;6.172;2022-10-22T04:29:17;4.87;;;1.40;;
20181;SDS011;10250;50.756;6.172;2022-10-22T04:31:19;5.80;;;1.20;;
20181;SDS011;10250;50.756;6.172;2022-10-22T04:33:21;4.37;;;1.27;;
20181;SDS011;10250;50.756;6.172;2022-10-22T04:35:22;4.57;;;1.40;;
20181;SDS011;10250;50.756;6.172;2022-10-22T04:37:23;3.97;;;1.40;;
20181;SDS011;10250;50.756;6.172;2022-10-22T04:39:23;7.93;;;1.93;;
20181;SDS011;10250;50.756;6.172;2022-10-22T04:41:28;3.87;;;1.30;;
20181;SDS011;10250;50.756;6.172;2022-10-22T04:43:30;4.80;;;1.50;;
20181;SDS011;10250;50.756;6.172;2022-10-22T04:45:34;6.83;;;1.50;;
20181;SDS011;10250;50.756;6.172;2022-10-22T04:47:34;4.60;;;1.40;;
20181;SDS011;10250;50.756;6.172;2022-10-22T04:49:35;7.37;;;1.60;;
20181;SDS011;10250;50.756;6.172;2022-10-22T04:51:36;6.10;;;1.70;;
20181;SDS011;10250;50.756;6.172;2022-10-22T04:53:36;3.27;;;1.00;;
20181;SDS011;10250;50.756;6.172;2022-10-22T04:55:39;7.73;;;1.30;;
20181;SDS011;10250;50.756;6.172;2022-10-22T04:57:39;5.37;;;1.23;;
20181;SDS011;10250;50.756;6.172;2022-10-22T04:59:40;4.60;;;1.20;;
20181;SDS011;10250;50.756;6.172;2022-10-22T05:01:41;3.93;;;1.10;;
20181;SDS011;10250;50.756;6.172;2022-10-22T05:03:43;4.33;;;1.10;;
20181;SDS011;10250;50.756;6.172;2022-10-22T05:05:44;4.20;;;1.33;;
20181;SDS011;10250;50.756;6.172;2022-10-22T05:07:45;3.37;;;1.10;;
20181;SDS011;10250;50.756;6.172;2022-10-22T05:09:45;3.77;;;1.07;;
20181;SDS011;10250;50.756;6.172;2022-10-22T05:11:47;1.17;;;0.80;;
20181;SDS011;10250;50.756;6.172;2022-10-22T05:13:49;6.87;;;1.40;;
20181;SDS011;10250;50.756;6.172;2022-10-22T05:15:50;5.83;;;1.60;;
20181;SDS011;10250;50.756;6.172;2022-10-22T05:17:51;5.60;;;1.23;;
20181;SDS011;10250;50.756;6.172;2022-10-22T05:19:51;4.80;;;1.17;;
20181;SDS011;10250;50.756;6.172;2022-10-22T05:21:53;4.07;;;0.97;;
20181;SDS011;10250;50.756;6.172;2022-10-22T05:23:57;3.37;;;1.20;;
20181;SDS011;10250;50.756;6.172;2022-10-22T05:26:01;5.90;;;1.27;;
20181;SDS011;10250;50.756;6.172;2022-10-22T05:28:02;6.73;;;1.30;;
20181;SDS011;10250;50.756;6.172;2022-10-22T05:30:04;2.27;;;0.83;;
20181;SDS011;10250;50.756;6.172;2022-10-22T05:32:05;7.83;;;1.40;;
20181;SDS011;10250;50.756;6.172;2022-10-22T05:34:05;4.73;;;1.03;;
20181;SDS011;10250;50.756;6.172;2022-10-22T05:36:06;4.90;;;1.10;;
20181;SDS011;10250;50.756;6.172;2022-10-22T05:38:09;5.23;;;1.40;;
20181;SDS011;10250;50.756;6.172;2022-10-22T05:40:10;6.23;;;1.43;;
20181;SDS011;10250;50.756;6.172;2022-10-22T05:42:10;4.17;;;1.00;;
20181;SDS011;10250;50.756;6.172;2022-10-22T05:44:11;5.60;;;1.27;;
20181;SDS011;10250;50.756;6.172;2022-10-22T05:46:19;3.40;;;1.10;;
20181;SDS011;10250;50.756;6.172;2022-10-22T05:48:21;3.70;;;1.03;;
20181;SDS011;10250;50.756;6.172;2022-10-22T05:50:22;4.83;;;1.00;;
20181;SDS011;10250;50.756;6.172;2022-10-22T05:52:22;3.83;;;1.07;;
20181;SDS011;10250;50.756;6.172;2022-10-22T05:54:23;4.70;;;1.20;;
20181;SDS011;10250;50.756;6.172;2022-10-22T05:56:24;3.47;;;1.10;;
20181;SDS011;10250;50.756;6.172;2022-10-22T05:58:26;4.00;;;1.10;;
20181;SDS011;10250;50.756;6.172;2022-10-22T06:00:26;5.57;;;1.20;;
20181;SDS011;10250;50.756;6.172;2022-10-22T06:02:27;5.87;;;1.30;;
20181;SDS011;10250;50.756;6.172;2022-10-22T06:04:27;4.30;;;1.00;;
20181;SDS011;10250;50.756;6.172;2022-10-22T06:08:33;6.47;;;1.33;;
20181;SDS011;10250;50.756;6.172;2022-10-22T06:10:33;3.30;;;1.10;;
20181;SDS011;10250;50.756;6.172;2022-10-22T06:12:34;4.20;;;1.00;;
20181;SDS011;10250;50.756;6.172;2022-10-22T06:14:35;4.47;;;1.10;;
20181;SDS011;10250;50.756;6.172;2022-10-22T06:16:36;3.97;;;1.00;;
20181;SDS011;10250;50.756;6.172;2022-10-22T06:18:36;5.73;;;1.13;;
20181;SDS011;10250;50.756;6.172;2022-10-22T06:20:37;3.50;;;0.97;;
20181;SDS011;10250;50.756;6.172;2022-10-22T06:22:38;4.50;;;1.10;;
20181;SDS011;10250;50.756;6.172;2022-10-22T06:24:39;4.40;;;1.03;;
20181;SDS011;10250;50.756;6.172;2022-10-22T06:26:39;2.83;;;0.90;;
20181;SDS011;10250;50.756;6.172;2022-10-22T06:28:40;3.33;;;0.93;;
20181;SDS011;10250;50.756;6.172;2022-10-22T06:30:41;4.70;;;1.20;;
20181;SDS011;10250;50.756;6.172;2022-10-22T06:32:41;3.47;;;0.90;;
20181;SDS011;10250;50.756;6.172;2022-10-22T06:34:42;4.07;;;0.90;;
20181;SDS011;10250;50.756;6.172;2022-10-22T06:36:43;3.27;;;1.10;;
20181;SDS011;10250;50.756;6.172;2022-10-22T06:38:44;4.43;;;1.20;;
20181;SDS011;10250;50.756;6.172;2022-10-22T06:40:45;2.50;;;0.77;;
20181;SDS011;10250;50.756;6.172;2022-10-22T06:42:45;3.60;;;0.80;;
20181;SDS011;10250;50.756;6.172;2022-10-22T06:44:46;3.33;;;1.07;;
20181;SDS011;10250;50.756;6.172;2022-10-22T06:46:50;4.50;;;1.00;;
20181;SDS011;10250;50.756;6.172;2022-10-22T06:48:56;4.83;;;0.90;;
20181;SDS011;10250;50.756;6.172;2022-10-22T06:51:01;4.40;;;1.00;;
20181;SDS011;10250;50.756;6.172;2022-10-22T06:53:03;6.90;;;1.00;;
20181;SDS011;10250;50.756;6.172;2022-10-22T06:55:04;4.80;;;1.10;;
20181;SDS011;10250;50.756;6.172;2022-10-22T06:57:05;3.37;;;0.83;;
20181;SDS011;10250;50.756;6.172;2022-10-22T06:59:05;3.30;;;0.83;;
20181;SDS011;10250;50.756;6.172;2022-10-22T07:01:07;4.90;;;0.97;;
20181;SDS011;10250;50.756;6.172;2022-10-22T07:03:12;2.97;;;0.90;;
20181;SDS011;10250;50.756;6.172;2022-10-22T07:05:13;5.83;;;1.00;;
20181;SDS011;10250;50.756;6.172;2022-10-22T07:07:14;4.57;;;1.13;;
20181;SDS011;10250;50.756;6.172;2022-10-22T07:09:15;2.57;;;0.73;;
20181;SDS011;10250;50.756;6.172;2022-10-22T07:13:20;2.30;;;0.80;;
20181;SDS011;10250;50.756;6.172;2022-10-22T07:15:21;5.13;;;1.47;;
20181;SDS011;10250;50.756;6.172;2022-10-22T07:17:22;6.50;;;1.10;;
20181;SDS011;10250;50.756;6.172;2022-10-22T07:19:23;3.07;;;0.87;;
20181;SDS011;10250;50.756;6.172;2022-10-22T07:21:23;5.60;;;1.30;;
20181;SDS011;10250;50.756;6.172;2022-10-22T07:23:25;1.60;;;0.60;;
20181;SDS011;10250;50.756;6.172;2022-10-22T07:25:26;5.30;;;1.33;;
20181;SDS011;10250;50.756;6.172;2022-10-22T07:27:27;4.83;;;1.07;;
20181;SDS011;10250;50.756;6.172;2022-10-22T07:29:27;3.07;;;0.73;;
20181;SDS011;10250;50.756;6.172;2022-10-22T07:31:28;2.43;;;0.80;;
20181;SDS011;10250;50.756;6.172;2022-10-22T07:33:28;4.23;;;1.00;;
20181;SDS011;10250;50.756;6.172;2022-10-22T07:35:29;5.53;;;1.13;;
20181;SDS011;10250;50.756;6.172;2022-10-22T07:37:30;3.57;;;0.93;;
20181;SDS011;10250;50.756;6.172;2022-10-22T07:39:31;5.13;;;1.27;;
20181;SDS011;10250;50.756;6.172;2022-10-22T07:41:31;3.03;;;0.83;;
20181;SDS011;10250;50.756;6.172;2022-10-22T07:43:32;6.43;;;1.10;;
20181;SDS011;10250;50.756;6.172;2022-10-22T07:45:33;4.20;;;0.90;;
20181;SDS011;10250;50.756;6.172;2022-10-22T07:47:33;3.60;;;0.97;;
20181;SDS011;10250;50.756;6.172;2022-10-22T07:49:34;4.33;;;1.13;;
20181;SDS011;10250;50.756;6.172;2022-10-22T07:51:35;3.90;;;0.87;;
20181;SDS011;10250;50.756;6.172;2022-10-22T07:53:35;2.83;;;1.03;;
20181;SDS011;10250;50.756;6.172;2022-10-22T07:55:36;3.63;;;1.00;;
20181;SDS011;10250;50.756;6.172;2022-10-22T07:57:37;4.10;;;0.83;;
20181;SDS011;10250;50.756;6.172;2022-10-22T07:59:41;3.03;;;0.83;;
20181;SDS011;10250;50.756;6.172;2022-10-22T08:01:47;3.57;;;1.00;;
20181;SDS011;10250;50.756;6.172;2022-10-22T08:03:48;2.50;;;0.73;;
20181;SDS011;10250;50.756;6.172;2022-10-22T08:05:48;4.20;;;1.20;;
20181;SDS011;10250;50.756;6.172;2022-10-22T08:07:50;5.33;;;1.10;;
20181;SDS011;10250;50.756;6.172;2022-10-22T08:09:51;3.23;;;0.87;;
20181;SDS011;10250;50.756;6.172;2022-10-22T08:11:52;3.07;;;1.13;;
20181;SDS011;10250;50.756;6.172;2022-10-22T08:13:53;5.43;;;1.00;;
20181;SDS011;10250;50.756;6.172;2022-10-22T08:15:53;4.90;;;0.90;;
20181;SDS011;10250;50.756;6.172;2022-10-22T08:17:54;4.13;;;1.03;;
20181;SDS011;10250;50.756;6.172;2022-10-22T08:19:55;2.97;;;0.87;;
20181;SDS011;10250;50.756;6.172;2022-10-22T08:21:55;6.50;;;1.43;;
20181;SDS011;10250;50.756;6.172;2022-10-22T08:23:56;2.93;;;0.73;;
20181;SDS011;10250;50.756;6.172;2022-10-22T08:25:56;1.53;;;0.70;;
20181;SDS011;10250;50.756;6.172;2022-10-22T08:27:58;6.87;;;1.10;;
20181;SDS011;10250;50.756;6.172;2022-10-22T08:29:59;3.97;;;0.80;;
20181;SDS011;10250;50.756;6.172;2022-10-22T08:31:59;2.57;;;0.70;;
20181;SDS011;10250;50.756;6.172;2022-10-22T08:34:01;7.13;;;1.20;;
20181;SDS011;10250;50.756;6.172;2022-10-22T08:36:04;9.83;;;1.30;;
20181;SDS011;10250;50.756;6.172;2022-10-22T08:38:05;3.03;;;1.00;;
20181;SDS011;10250;50.756;6.172;2022-10-22T08:40:06;3.70;;;1.00;;
20181;SDS011;10250;50.756;6.172;2022-10-22T08:49:11;4.00;;;0.80;;
20181;SDS011;10250;50.756;6.172;2022-10-22T08:51:26;4.47;;;0.93;;
20181;SDS011;10250;50.756;6.172;2022-10-22T08:53:35;2.80;;;0.77;;
20181;SDS011;10250;50.756;6.172;2022-10-22T08:55:43;9.63;;;1.30;;
20181;SDS011;10250;50.756;6.172;2022-10-22T08:57:45;3.67;;;0.87;;
20181;SDS011;10250;50.756;6.172;2022-10-22T09:04:46;1.10;;;0.70;;
20181;SDS011;10250;50.756;6.172;2022-10-22T09:06:54;4.50;;;0.90;;
20181;SDS011;10250;50.756;6.172;2022-10-22T09:08:58;8.20;;;1.10;;
20181;SDS011;10250;50.756;6.172;2022-10-22T09:11:01;5.53;;;0.70;;
20181;SDS011;10250;50.756;6.172;2022-10-22T09:13:09;3.93;;;0.80;;
20181;SDS011;10250;50.756;6.172;2022-10-22T09:15:13;2.30;;;0.70;;
20181;SDS011;10250;50.756;6.172;2022-10-22T09:17:32;4.50;;;1.00;;
20181;SDS011;10250;50.756;6.172;2022-10-22T09:22:01;3.30;;;1.10;;
20181;SDS011;10250;50.756;6.172;2022-10-22T09:24:23;4.63;;;1.00;;
20181;SDS011;10250;50.756;6.172;2022-10-22T09:26:24;2.20;;;0.67;;
20181;SDS011;10250;50.756;6.172;2022-10-22T09:28:26;5.97;;;1.10;;
20181;SDS011;10250;50.756;6.172;2022-10-22T09:30:28;4.07;;;1.03;;
20181;SDS011;10250;50.756;6.172;2022-10-22T09:32:31;3.30;;;0.90;;
20181;SDS011;10250;50.756;6.172;2022-10-22T09:34:32;3.83;;;0.90;;
20181;SDS011;10250;50.756;6.172;2022-10-22T09:36:33;3.40;;;0.90;;
20181;SDS011;10250;50.756;6.172;2022-10-22T09:38:44;2.10;;;0.77;;
20181;SDS011;10250;50.756;6.172;2022-10-22T09:40:50;2.10;;;0.87;;
20181;SDS011;10250;50.756;6.172;2022-10-22T09:42:53;3.53;;;0.77;;
20181;SDS011;10250;50.756;6.172;2022-10-22T09:44:54;2.57;;;0.80;;
20181;SDS011;10250;50.756;6.172;2022-10-22T09:46:57;2.60;;;0.80;;
20181;SDS011;10250;50.756;6.172;2022-10-22T09:49:02;3.53;;;0.90;;
20181;SDS011;10250;50.756;6.172;2022-10-22T09:51:19;9.13;;;1.13;;
20181;SDS011;10250;50.756;6.172;2022-10-22T09:53:25;3.97;;;0.83;;
20181;SDS011;10250;50.756;6.172;2022-10-22T09:55:28;3.13;;;0.60;;
20181;SDS011;10250;50.756;6.172;2022-10-22T09:57:29;2.60;;;0.87;;
20181;SDS011;10250;50.756;6.172;2022-10-22T09:59:32;4.37;;;0.90;;
20181;SDS011;10250;50.756;6.172;2022-10-22T10:01:37;1.70;;;0.60;;
20181;SDS011;10250;50.756;6.172;2022-10-22T10:03:39;3.23;;;0.90;;
20181;SDS011;10250;50.756;6.172;2022-10-22T10:05:40;1.93;;;0.43;;
20181;SDS011;10250;50.756;6.172;2022-10-22T10:07:43;1.67;;;0.70;;
20181;SDS011;10250;50.756;6.172;2022-10-22T10:09:46;2.77;;;0.80;;
20181;SDS011;10250;50.756;6.172;2022-10-22T10:11:48;3.83;;;0.77;;
20181;SDS011;10250;50.756;6.172;2022-10-22T10:16:41;2.37;;;0.60;;
20181;SDS011;10250;50.756;6.172;2022-10-22T10:28:15;3.90;;;0.80;;
20181;SDS011;10250;50.756;6.172;2022-10-22T10:30:20;1.70;;;0.50;;
20181;SDS011;10250;50.756;6.172;2022-10-22T10:39:32;4.10;;;0.87;;
20181;SDS011;10250;50.756;6.172;2022-10-22T10:46:48;1.70;;;0.57;;
20181;SDS011;10250;50.756;6.172;2022-10-22T10:51:05;3.73;;;0.93;;
20181;SDS011;10250;50.756;6.172;2022-10-22T11:00:57;2.97;;;0.60;;
20181;SDS011;10250;50.756;6.172;2022-10-22T11:07:52;1.90;;;0.80;;
20181;SDS011;10250;50.756;6.172;2022-10-22T11:10:02;2.77;;;0.70;;
20181;SDS011;10250;50.756;6.172;2022-10-22T11:12:14;2.40;;;0.70;;
20181;SDS011;10250;50.756;6.172;2022-10-22T11:14:26;1.67;;;0.60;;
20181;SDS011;10250;50.756;6.172;2022-10-22T11:16:32;1.87;;;0.67;;
20181;SDS011;10250;50.756;6.172;2022-10-22T11:18:39;6.20;;;0.80;;
20181;SDS011;10250;50.756;6.172;2022-10-22T11:23:40;2.03;;;0.70;;
20181;SDS011;10250;50.756;6.172;2022-10-22T11:25:46;1.57;;;0.60;;
20181;SDS011;10250;50.756;6.172;2022-10-22T11:30:11;1.90;;;0.50;;
20181;SDS011;10250;50.756;6.172;2022-10-22T11:32:20;2.17;;;0.60;;
20181;SDS011;10250;50.756;6.172;2022-10-22T11:34:37;1.43;;;0.50;;
20181;SDS011;10250;50.756;6.172;2022-10-22T11:36:44;3.13;;;0.77;;
20181;SDS011;10250;50.756;6.172;2022-10-22T11:38:45;3.83;;;0.90;;
20181;SDS011;10250;50.756;6.172;2022-10-22T11:40:47;4.33;;;1.13;;
20181;SDS011;10250;50.756;6.172;2022-10-22T11:42:56;4.57;;;1.03;;
20181;SDS011;10250;50.756;6.172;2022-10-22T11:55:27;1.50;;;0.60;;
20181;SDS011;10250;50.756;6.172;2022-10-22T11:57:47;2.57;;;0.80;;
20181;SDS011;10250;50.756;6.172;2022-10-22T11:59:59;2.03;;;0.77;;
20181;SDS011;10250;50.756;6.172;2022-10-22T12:04:32;0.83;;;0.50;;
20181;SDS011;10250;50.756;6.172;2022-10-22T12:08:56;3.70;;;0.63;;
20181;SDS011;10250;50.756;6.172;2022-10-22T12:13:17;0.83;;;0.40;;
20181;SDS011;10250;50.756;6.172;2022-10-22T12:15:26;1.93;;;0.60;;
20181;SDS011;10250;50.756;6.172;2022-10-22T12:17:27;2.30;;;0.73;;
20181;SDS011;10250;50.756;6.172;2022-10-22T12:19:37;1.13;;;0.57;;
20181;SDS011;10250;50.756;6.172;2022-10-22T12:21:52;1.37;;;0.40;;
20181;SDS011;10250;50.756;6.172;2022-10-22T12:23:54;0.90;;;0.43;;
20181;SDS011;10250;50.756;6.172;2022-10-22T12:25:56;2.53;;;0.80;;
20181;SDS011;10250;50.756;6.172;2022-10-22T12:27:57;1.83;;;0.73;;
20181;SDS011;10250;50.756;6.172;2022-10-22T12:29:59;2.30;;;0.60;;
20181;SDS011;10250;50.756;6.172;2022-10-22T12:32:02;3.67;;;0.80;;
20181;SDS011;10250;50.756;6.172;2022-10-22T12:34:03;1.37;;;0.37;;
20181;SDS011;10250;50.756;6.172;2022-10-22T12:36:04;0.93;;;0.50;;
20181;SDS011;10250;50.756;6.172;2022-10-22T12:38:15;1.30;;;0.43;;
20181;SDS011;10250;50.756;6.172;2022-10-22T12:42:19;5.07;;;0.80;;
20181;SDS011;10250;50.756;6.172;2022-10-22T12:44:22;2.63;;;0.53;;
20181;SDS011;10250;50.756;6.172;2022-10-22T12:46:23;2.00;;;0.63;;
20181;SDS011;10250;50.756;6.172;2022-10-22T12:48:26;0.50;;;0.40;;
20181;SDS011;10250;50.756;6.172;2022-10-22T12:50:31;3.90;;;0.60;;
20181;SDS011;10250;50.756;6.172;2022-10-22T12:52:32;2.87;;;0.83;;
20181;SDS011;10250;50.756;6.172;2022-10-22T12:54:33;3.13;;;0.80;;
20181;SDS011;10250;50.756;6.172;2022-10-22T12:56:35;4.17;;;0.63;;
20181;SDS011;10250;50.756;6.172;2022-10-22T12:58:40;6.23;;;0.80;;
20181;SDS011;10250;50.756;6.172;2022-10-22T13:00:54;1.00;;;0.37;;
20181;SDS011;10250;50.756;6.172;2022-10-22T13:02:57;1.33;;;0.40;;
20181;SDS011;10250;50.756;6.172;2022-10-22T13:07:36;2.23;;;0.60;;
20181;SDS011;10250;50.756;6.172;2022-10-22T13:11:40;0.57;;;0.40;;
20181;SDS011;10250;50.756;6.172;2022-10-22T13:13:48;1.20;;;0.50;;
20181;SDS011;10250;50.756;6.172;2022-10-22T13:15:48;2.50;;;0.90;;
20181;SDS011;10250;50.756;6.172;2022-10-22T13:17:49;1.83;;;0.60;;
20181;SDS011;10250;50.756;6.172;2022-10-22T13:21:53;3.23;;;0.97;;
20181;SDS011;10250;50.756;6.172;2022-10-22T13:23:55;1.47;;;0.50;;
20181;SDS011;10250;50.756;6.172;2022-10-22T13:28:17;2.00;;;0.50;;
20181;SDS011;10250;50.756;6.172;2022-10-22T13:30:25;7.17;;;0.93;;
20181;SDS011;10250;50.756;6.172;2022-10-22T13:32:31;0.77;;;0.50;;
20181;SDS011;10250;50.756;6.172;2022-10-22T13:34:33;2.43;;;0.60;;
20181;SDS011;10250;50.756;6.172;2022-10-22T13:36:35;1.87;;;0.53;;
20181;SDS011;10250;50.756;6.172;2022-10-22T13:38:35;0.83;;;0.47;;
20181;SDS011;10250;50.756;6.172;2022-10-22T13:40:37;3.90;;;0.80;;
20181;SDS011;10250;50.756;6.172;2022-10-22T13:42:38;2.87;;;0.43;;
20181;SDS011;10250;50.756;6.172;2022-10-22T13:44:38;1.23;;;0.70;;
20181;SDS011;10250;50.756;6.172;2022-10-22T13:46:39;0.53;;;0.40;;
20181;SDS011;10250;50.756;6.172;2022-10-22T13:48:41;2.53;;;0.77;;
20181;SDS011;10250;50.756;6.172;2022-10-22T13:50:43;4.43;;;0.83;;
20181;SDS011;10250;50.756;6.172;2022-10-22T13:52:46;2.33;;;0.60;;
20181;SDS011;10250;50.756;6.172;2022-10-22T13:54:52;2.60;;;0.50;;
20181;SDS011;10250;50.756;6.172;2022-10-22T13:56:52;1.47;;;0.63;;
20181;SDS011;10250;50.756;6.172;2022-10-22T13:58:53;4.00;;;0.80;;
20181;SDS011;10250;50.756;6.172;2022-10-22T14:00:57;1.57;;;0.50;;
20181;SDS011;10250;50.756;6.172;2022-10-22T14:02:58;1.53;;;0.60;;
20181;SDS011;10250;50.756;6.172;2022-10-22T14:04:59;3.93;;;0.73;;
20181;SDS011;10250;50.756;6.172;2022-10-22T14:07:02;1.77;;;0.70;;
20181;SDS011;10250;50.756;6.172;2022-10-22T14:09:04;3.87;;;1.03;;
20181;SDS011;10250;50.756;6.172;2022-10-22T14:11:10;3.50;;;0.90;;
20181;SDS011;10250;50.756;6.172;2022-10-22T14:13:11;3.13;;;0.80;;